createdAt,value
2017-09-24T00:00:54.799Z,10.90
2017-09-24T00:03:22.338Z,10.90
2017-09-24T00:05:51.383Z,11.00
2017-09-24T00:08:18.940Z,11.00
2017-09-24T00:10:46.499Z,11.10
2017-09-24T00:13:14.035Z,11.20
2017-09-24T00:15:41.539Z,11.30
2017-09-24T00:18:10.592Z,11.40
2017-09-24T00:20:38.136Z,11.30
2017-09-24T00:23:06.009Z,11.40
2017-09-24T00:25:33.567Z,11.40
2017-09-24T00:28:01.840Z,11.30
2017-09-24T00:30:29.379Z,11.30
2017-09-24T00:32:56.926Z,11.30
2017-09-24T00:35:24.799Z,11.30
2017-09-24T00:37:52.339Z,11.30
2017-09-24T00:40:19.852Z,11.30
2017-09-24T00:42:48.059Z,11.40
2017-09-24T00:45:15.576Z,11.40
2017-09-24T00:47:43.094Z,11.40
2017-09-24T00:50:10.927Z,11.40
2017-09-24T00:52:38.447Z,11.40
2017-09-24T00:55:06.036Z,11.40
2017-09-24T00:57:33.591Z,11.40
2017-09-24T01:00:03.081Z,11.40
2017-09-24T01:02:30.583Z,11.30
2017-09-24T01:04:58.132Z,11.40
2017-09-24T01:07:26.478Z,11.40
2017-09-24T01:09:54.752Z,11.40
2017-09-24T01:12:22.275Z,11.40
2017-09-24T01:14:50.559Z,11.40
2017-09-24T01:17:18.078Z,11.40
2017-09-24T01:19:45.578Z,11.40
2017-09-24T01:22:13.155Z,11.40
2017-09-24T01:24:40.671Z,11.40
2017-09-24T01:27:08.183Z,11.40
2017-09-24T01:29:35.749Z,11.40
2017-09-24T01:32:04.984Z,11.50
2017-09-24T01:34:32.531Z,11.50
2017-09-24T01:37:03.316Z,11.40
2017-09-24T01:39:30.805Z,11.40
2017-09-24T01:41:58.352Z,11.40
2017-09-24T01:44:25.904Z,11.40
2017-09-24T01:46:54.947Z,11.30
2017-09-24T01:49:22.451Z,11.40
2017-09-24T01:51:51.698Z,11.30
2017-09-24T01:54:19.250Z,11.30
2017-09-24T01:56:46.782Z,11.30
2017-09-24T01:59:14.654Z,11.20
2017-09-24T02:01:42.162Z,11.20
2017-09-24T02:04:09.705Z,11.20
2017-09-24T02:06:41.479Z,11.20
2017-09-24T02:09:09.109Z,11.10
2017-09-24T02:11:36.627Z,11.20
2017-09-24T02:14:04.178Z,11.10
2017-09-24T02:16:32.038Z,11.20
2017-09-24T02:18:59.857Z,11.20
2017-09-24T02:21:27.559Z,11.20
2017-09-24T02:23:55.376Z,11.20
2017-09-24T02:26:23.122Z,11.30
2017-09-24T02:28:50.625Z,11.40
2017-09-24T02:31:18.163Z,11.40
2017-09-24T02:33:46.359Z,11.40
2017-09-24T02:36:24.960Z,11.30
2017-09-24T02:38:52.779Z,11.30
2017-09-24T02:41:20.290Z,11.40
2017-09-24T02:43:47.870Z,11.40
2017-09-24T02:46:15.383Z,11.30
2017-09-24T02:48:42.904Z,11.30
2017-09-24T02:51:10.636Z,11.30
2017-09-24T02:53:41.148Z,11.20
2017-09-24T02:56:08.917Z,11.30
2017-09-24T02:58:36.483Z,11.20
2017-09-24T03:01:04.387Z,11.30
2017-09-24T03:03:31.938Z,11.30
2017-09-24T03:05:59.439Z,11.30
2017-09-24T03:08:30.795Z,11.30
2017-09-24T03:10:58.313Z,11.30
2017-09-24T03:13:25.917Z,11.30
2017-09-24T03:15:53.490Z,11.30
2017-09-24T03:18:21.008Z,11.30
2017-09-24T03:20:49.324Z,11.30
2017-09-24T03:23:20.178Z,11.30
2017-09-24T03:25:47.735Z,11.30
2017-09-24T03:28:15.254Z,11.30
2017-09-24T03:30:43.379Z,11.30
2017-09-24T03:33:10.883Z,11.30
2017-09-24T03:35:38.678Z,11.30
2017-09-24T03:38:09.198Z,11.30
2017-09-24T03:40:37.481Z,11.40
2017-09-24T03:43:05.043Z,11.30
2017-09-24T03:45:33.071Z,11.30
2017-09-24T03:48:00.631Z,11.30
2017-09-24T03:50:29.847Z,11.20
2017-09-24T03:53:01.318Z,11.20
2017-09-24T03:55:28.995Z,11.20
2017-09-24T03:57:56.535Z,11.20
2017-09-24T04:00:24.385Z,11.30
2017-09-24T04:02:52.659Z,11.20
2017-09-24T04:05:21.000Z,11.30
2017-09-24T04:07:50.023Z,11.30
2017-09-24T04:10:21.501Z,11.30
2017-09-24T04:12:50.162Z,11.20
2017-09-24T04:15:17.759Z,11.20
2017-09-24T04:17:45.307Z,11.20
2017-09-24T04:20:14.544Z,11.20
2017-09-24T04:22:42.068Z,11.20
2017-09-24T04:25:09.907Z,11.20
2017-09-24T04:27:37.425Z,11.10
2017-09-24T04:30:05.735Z,11.20
2017-09-24T04:32:33.303Z,11.10
2017-09-24T04:35:01.572Z,11.10
2017-09-24T04:37:29.355Z,11.10
2017-09-24T04:40:03.584Z,11.10
2017-09-24T04:42:31.250Z,11.10
2017-09-24T04:44:58.788Z,11.10
2017-09-24T04:47:26.335Z,11.10
2017-09-24T04:49:54.642Z,11.10
2017-09-24T04:52:22.814Z,11.00
2017-09-24T04:54:50.314Z,11.10
2017-09-24T04:57:17.883Z,11.10
2017-09-24T04:59:45.424Z,11.10
2017-09-24T05:02:12.955Z,11.00
2017-09-24T05:04:40.676Z,11.00
2017-09-24T05:07:08.960Z,10.90
2017-09-24T05:09:37.375Z,10.90
2017-09-24T05:12:05.133Z,10.90
2017-09-24T05:14:32.735Z,10.90
2017-09-24T05:17:00.251Z,10.80
2017-09-24T05:19:27.759Z,10.90
2017-09-24T05:21:56.033Z,10.80
2017-09-24T05:24:23.530Z,10.90
2017-09-24T05:26:51.051Z,10.90
2017-09-24T05:29:18.599Z,10.90
2017-09-24T05:31:46.148Z,10.90
2017-09-24T05:34:13.732Z,10.90
2017-09-24T05:36:41.640Z,11.00
2017-09-24T05:39:09.232Z,10.90
2017-09-24T05:41:36.775Z,11.00
2017-09-24T05:44:04.296Z,11.00
2017-09-24T05:46:32.568Z,11.20
2017-09-24T05:49:00.131Z,11.20
2017-09-24T05:51:29.349Z,11.40
2017-09-24T05:53:56.878Z,11.40
2017-09-24T05:56:25.300Z,11.50
2017-09-24T05:58:53.043Z,11.50
2017-09-24T06:01:20.709Z,11.60
2017-09-24T06:03:48.415Z,11.70
2017-09-24T06:06:15.977Z,11.70
2017-09-24T06:08:43.572Z,11.60
2017-09-24T06:11:11.135Z,11.60
2017-09-24T06:13:38.691Z,11.70
2017-09-24T06:16:06.752Z,11.80
2017-09-24T06:18:35.071Z,12.00
2017-09-24T06:21:02.823Z,11.90
2017-09-24T06:23:30.515Z,12.00
2017-09-24T06:25:58.040Z,12.00
2017-09-24T06:28:25.879Z,12.20
2017-09-24T06:30:54.166Z,12.40
2017-09-24T06:33:21.739Z,12.30
2017-09-24T06:35:49.270Z,12.40
2017-09-24T06:38:17.589Z,12.50
2017-09-24T06:40:48.786Z,12.50
2017-09-24T06:43:17.078Z,12.50
2017-09-24T06:45:46.330Z,12.60
2017-09-24T06:48:13.873Z,12.50
2017-09-24T06:50:41.824Z,12.60
2017-09-24T06:53:10.177Z,12.80
2017-09-24T06:55:41.546Z,13.00
2017-09-24T06:58:09.100Z,13.00
2017-09-24T07:00:36.620Z,13.10
2017-09-24T07:03:04.167Z,13.20
2017-09-24T07:05:32.096Z,13.10
2017-09-24T07:07:59.674Z,13.10
2017-09-24T07:10:27.232Z,13.00
2017-09-24T07:12:55.120Z,13.00
2017-09-24T07:15:22.667Z,13.00
2017-09-24T07:17:50.188Z,12.90
2017-09-24T07:20:19.334Z,12.70
2017-09-24T07:22:47.008Z,12.70
2017-09-24T07:25:14.571Z,12.60
2017-09-24T07:27:42.083Z,12.50
2017-09-24T07:30:09.700Z,12.50
2017-09-24T07:32:38.785Z,12.50
2017-09-24T07:35:06.352Z,12.50
2017-09-24T07:37:33.872Z,12.60
2017-09-24T07:40:02.363Z,12.70
2017-09-24T07:42:29.885Z,12.90
2017-09-24T07:44:58.163Z,13.30
2017-09-24T07:47:25.696Z,13.30
2017-09-24T07:49:53.249Z,13.50
2017-09-24T07:52:22.711Z,13.80
2017-09-24T07:54:52.001Z,14.00
2017-09-24T07:57:19.507Z,13.90
2017-09-24T07:59:47.072Z,14.10
2017-09-24T08:02:14.655Z,14.30
2017-09-24T08:04:42.283Z,14.50
2017-09-24T08:07:09.835Z,14.70
2017-09-24T08:09:37.416Z,14.90
2017-09-24T08:12:05.789Z,15.00
2017-09-24T08:14:33.373Z,15.20
2017-09-24T08:17:01.657Z,15.50
2017-09-24T08:19:30.857Z,15.70
2017-09-24T08:21:58.433Z,15.70
2017-09-24T08:24:26.348Z,16.00
2017-09-24T08:26:58.420Z,16.30
2017-09-24T08:29:25.925Z,16.60
2017-09-24T08:31:53.485Z,16.50
2017-09-24T08:34:20.990Z,16.30
2017-09-24T08:36:48.496Z,16.40
2017-09-24T08:39:16.408Z,16.70
2017-09-24T08:41:44.722Z,16.70
2017-09-24T08:44:12.532Z,17.00
2017-09-24T08:46:40.079Z,17.40
2017-09-24T08:49:07.619Z,17.70
2017-09-24T08:51:36.111Z,17.90
2017-09-24T08:54:03.658Z,18.00
2017-09-24T08:56:31.176Z,18.10
2017-09-24T08:59:01.553Z,18.20
2017-09-24T09:01:29.263Z,18.40
2017-09-24T09:03:56.842Z,18.10
2017-09-24T09:06:25.122Z,18.20
2017-09-24T09:08:53.228Z,18.20
2017-09-24T09:11:20.737Z,18.10
2017-09-24T09:13:51.830Z,18.40
2017-09-24T09:16:19.326Z,17.90
2017-09-24T09:18:46.844Z,18.10
2017-09-24T09:21:14.505Z,18.40
2017-09-24T09:23:42.213Z,18.70
2017-09-24T09:26:09.755Z,18.90
2017-09-24T09:28:41.174Z,19.10
2017-09-24T09:31:08.680Z,19.30
2017-09-24T09:33:36.179Z,19.40
2017-09-24T09:36:03.723Z,19.50
2017-09-24T09:38:31.721Z,19.60
2017-09-24T09:40:59.255Z,19.80
2017-09-24T09:43:42.209Z,19.70
2017-09-24T09:46:21.348Z,19.60
2017-09-24T09:48:48.883Z,19.60
2017-09-24T09:51:16.705Z,19.30
2017-09-24T09:53:45.957Z,19.50
2017-09-24T09:56:13.518Z,19.50
2017-09-24T09:58:41.049Z,19.60
2017-09-24T10:01:08.811Z,19.80
2017-09-24T10:03:36.328Z,19.90
2017-09-24T10:06:04.403Z,20.00
2017-09-24T10:08:43.644Z,20.20
2017-09-24T10:11:11.199Z,20.20
2017-09-24T10:13:41.127Z,20.30
2017-09-24T10:16:08.629Z,20.30
2017-09-24T10:18:36.202Z,20.20
2017-09-24T10:21:04.259Z,20.20
2017-09-24T10:23:31.768Z,20.20
2017-09-24T10:26:01.044Z,20.40
2017-09-24T10:31:46.645Z,20.50
2017-09-24T10:34:14.191Z,20.50
2017-09-24T10:36:41.698Z,20.50
2017-09-24T10:39:09.209Z,20.60
2017-09-24T10:41:37.665Z,20.60
2017-09-24T10:44:05.188Z,20.30
2017-09-24T10:46:32.902Z,20.10
2017-09-24T10:49:00.519Z,20.10
2017-09-24T10:51:28.271Z,20.00
2017-09-24T10:53:56.702Z,20.00
2017-09-24T10:56:24.206Z,19.80
2017-09-24T10:58:51.756Z,19.90
2017-09-24T11:01:19.356Z,20.00
2017-09-24T11:03:46.867Z,20.00
2017-09-24T11:06:14.632Z,19.90
2017-09-24T11:08:42.139Z,19.90
2017-09-24T11:11:10.459Z,19.70
2017-09-24T11:13:38.023Z,19.70
2017-09-24T11:16:05.523Z,19.60
2017-09-24T11:18:33.443Z,19.50
2017-09-24T11:21:01.198Z,19.40
2017-09-24T11:23:30.150Z,19.80
2017-09-24T11:25:57.653Z,19.80
2017-09-24T11:28:25.505Z,19.90
2017-09-24T11:31:01.331Z,20.00
2017-09-24T11:33:30.563Z,20.10
2017-09-24T11:35:58.075Z,20.10
2017-09-24T11:38:25.586Z,20.10
2017-09-24T11:40:53.136Z,19.90
2017-09-24T11:43:20.636Z,19.60
2017-09-24T11:45:51.719Z,19.60
2017-09-24T11:48:19.830Z,19.50
2017-09-24T11:50:48.278Z,19.20
2017-09-24T11:53:16.580Z,19.10
2017-09-24T11:55:44.620Z,19.10
2017-09-24T11:58:12.132Z,19.10
2017-09-24T12:00:42.922Z,19.20
2017-09-24T12:03:10.983Z,19.20
2017-09-24T12:05:39.446Z,19.20
2017-09-24T12:08:07.752Z,19.10
2017-09-24T12:10:35.291Z,19.10
2017-09-24T12:13:03.035Z,19.30
2017-09-24T12:15:31.347Z,19.50
2017-09-24T12:17:58.872Z,19.50
2017-09-24T12:20:27.213Z,19.60
2017-09-24T12:22:55.199Z,19.60
2017-09-24T12:25:24.211Z,19.80
2017-09-24T12:27:51.754Z,19.70
2017-09-24T12:30:19.268Z,19.90
2017-09-24T12:32:46.833Z,19.60
2017-09-24T12:35:14.355Z,19.10
2017-09-24T12:37:43.586Z,19.20
2017-09-24T12:40:11.119Z,19.20
2017-09-24T12:42:38.707Z,19.50
2017-09-24T12:45:07.135Z,19.50
2017-09-24T12:47:39.045Z,19.50
2017-09-24T12:50:06.590Z,19.50
2017-09-24T12:52:34.886Z,19.10
2017-09-24T12:55:03.297Z,19.10
2017-09-24T12:57:30.799Z,19.10
2017-09-24T12:59:58.319Z,19.30
2017-09-24T13:02:29.312Z,19.00
2017-09-24T13:04:57.703Z,19.00
2017-09-24T13:07:26.235Z,19.00
2017-09-24T13:09:53.784Z,18.90
2017-09-24T13:12:22.199Z,18.90
2017-09-24T13:14:49.744Z,19.00
2017-09-24T13:17:18.034Z,18.90
2017-09-24T13:19:46.500Z,18.90
2017-09-24T13:22:14.784Z,18.70
2017-09-24T13:24:42.326Z,18.70
2017-09-24T13:27:11.691Z,18.70
2017-09-24T13:29:39.360Z,18.70
2017-09-24T13:32:07.703Z,18.70
2017-09-24T13:34:36.084Z,18.70
2017-09-24T13:37:03.671Z,18.80
2017-09-24T13:39:31.176Z,18.70
2017-09-24T13:41:58.707Z,18.80
2017-09-24T13:44:26.262Z,18.90
2017-09-24T13:46:53.763Z,19.00
2017-09-24T13:49:21.706Z,19.10
2017-09-24T13:51:50.436Z,19.00
2017-09-24T13:54:17.939Z,19.00
2017-09-24T13:56:45.487Z,19.10
2017-09-24T13:59:13.528Z,19.00
2017-09-24T14:01:41.055Z,19.00
2017-09-24T14:04:09.863Z,19.20
2017-09-24T14:06:37.553Z,19.20
2017-09-24T14:09:05.099Z,19.10
2017-09-24T14:11:32.668Z,18.80
2017-09-24T14:14:00.603Z,18.70
2017-09-24T14:16:28.952Z,18.90
2017-09-24T14:18:59.567Z,18.90
2017-09-24T14:21:27.075Z,18.90
2017-09-24T14:23:54.762Z,19.00
2017-09-24T14:26:23.233Z,18.90
2017-09-24T14:28:50.750Z,18.80
2017-09-24T14:31:19.013Z,18.70
2017-09-24T14:33:52.491Z,18.70
2017-09-24T14:36:20.018Z,18.60
2017-09-24T14:38:48.991Z,18.50
2017-09-24T14:41:16.519Z,18.50
2017-09-24T14:43:44.067Z,18.40
2017-09-24T14:46:12.500Z,18.20
2017-09-24T14:48:43.476Z,18.20
2017-09-24T14:51:11.323Z,18.10
2017-09-24T14:53:38.860Z,18.10
2017-09-24T14:56:06.379Z,18.00
2017-09-24T14:58:33.999Z,17.80
2017-09-24T15:01:02.893Z,17.50
2017-09-24T15:03:30.404Z,17.50
2017-09-24T15:05:58.717Z,17.40
2017-09-24T15:08:27.943Z,17.40
2017-09-24T15:10:55.463Z,17.40
2017-09-24T15:13:22.997Z,17.30
2017-09-24T15:15:52.253Z,17.20
2017-09-24T15:18:20.024Z,17.20
2017-09-24T15:20:47.569Z,17.20
2017-09-24T15:23:15.211Z,17.20
2017-09-24T15:25:42.752Z,17.20
2017-09-24T15:28:11.988Z,17.30
2017-09-24T15:30:39.495Z,17.30
2017-09-24T15:33:07.775Z,17.20
2017-09-24T15:35:39.773Z,17.20
2017-09-24T15:38:07.319Z,17.20
2017-09-24T15:40:35.779Z,17.20
2017-09-24T15:43:04.083Z,17.10
2017-09-24T15:45:31.599Z,17.10
2017-09-24T15:47:59.156Z,17.20
2017-09-24T15:50:27.022Z,17.10
2017-09-24T15:52:55.483Z,17.10
2017-09-24T15:55:23.434Z,17.10
2017-09-24T15:57:50.943Z,17.20
2017-09-24T16:00:18.500Z,17.30
2017-09-24T16:02:46.814Z,17.30
2017-09-24T16:05:14.577Z,17.30
2017-09-24T16:07:42.088Z,17.30
2017-09-24T16:10:09.643Z,17.30
2017-09-24T16:12:37.208Z,17.30
2017-09-24T16:15:04.749Z,17.30
2017-09-24T16:17:32.250Z,17.20
2017-09-24T16:20:04.257Z,16.90
2017-09-24T16:22:31.805Z,16.90
2017-09-24T16:24:59.354Z,16.70
2017-09-24T16:27:26.871Z,16.60
2017-09-24T16:29:54.392Z,16.50
2017-09-24T16:32:22.090Z,16.50
2017-09-24T16:34:49.595Z,16.40
2017-09-24T16:37:18.261Z,16.40
2017-09-24T16:39:45.756Z,16.30
2017-09-24T16:42:13.247Z,16.20
2017-09-24T16:44:42.506Z,15.90
2017-09-24T16:47:10.024Z,15.80
2017-09-24T16:49:38.302Z,15.60
2017-09-24T16:52:05.880Z,15.50
2017-09-24T16:54:33.388Z,15.40
2017-09-24T16:57:01.829Z,15.20
2017-09-24T16:59:29.372Z,15.10
2017-09-24T17:01:56.875Z,15.00
2017-09-24T17:04:24.425Z,14.90
2017-09-24T17:06:51.994Z,14.80
2017-09-24T17:09:19.872Z,14.60
2017-09-24T17:11:47.880Z,14.50
2017-09-24T17:14:15.648Z,14.40
2017-09-24T17:16:43.199Z,14.20
2017-09-24T17:19:11.522Z,14.00
2017-09-24T17:21:39.060Z,13.90
2017-09-24T17:24:06.579Z,13.80
2017-09-24T17:26:34.106Z,13.70
2017-09-24T17:29:01.947Z,13.60
2017-09-24T17:31:29.540Z,13.40
2017-09-24T17:33:57.415Z,13.30
2017-09-24T17:36:28.021Z,13.20
2017-09-24T17:38:55.563Z,13.10
2017-09-24T17:41:24.475Z,12.90
2017-09-24T17:43:51.980Z,12.90
2017-09-24T17:46:20.290Z,12.80
2017-09-24T17:48:48.577Z,12.80
2017-09-24T17:51:24.712Z,12.70
2017-09-24T17:53:52.221Z,12.70
2017-09-24T17:56:19.962Z,12.80
2017-09-24T17:58:47.519Z,13.00
2017-09-24T18:01:15.145Z,13.10
2017-09-24T18:03:42.642Z,13.10
2017-09-24T18:06:10.387Z,13.00
2017-09-24T18:08:38.764Z,12.90
2017-09-24T18:11:06.349Z,12.70
2017-09-24T18:13:34.255Z,12.60
2017-09-24T18:16:03.495Z,12.40
2017-09-24T18:18:31.925Z,12.30
2017-09-24T18:20:59.435Z,12.30
2017-09-24T18:23:27.946Z,12.20
2017-09-24T18:25:55.537Z,12.10
2017-09-24T18:28:23.093Z,12.10
2017-09-24T18:30:52.285Z,12.00
2017-09-24T18:33:19.819Z,11.90
2017-09-24T18:35:47.368Z,11.90
2017-09-24T18:38:14.990Z,12.00
2017-09-24T18:40:42.539Z,12.00
2017-09-24T18:43:11.783Z,11.90
2017-09-24T18:45:39.291Z,11.90
2017-09-24T18:48:07.607Z,11.70
2017-09-24T18:50:35.131Z,11.70
2017-09-24T18:53:03.741Z,11.50
2017-09-24T18:55:35.525Z,11.50
2017-09-24T18:58:03.178Z,11.50
2017-09-24T19:00:31.487Z,11.40
2017-09-24T19:02:58.988Z,11.30
2017-09-24T19:05:26.504Z,11.30
2017-09-24T19:08:01.383Z,11.20
2017-09-24T19:10:28.890Z,11.20
2017-09-24T19:12:56.924Z,11.10
2017-09-24T19:15:24.768Z,11.10
2017-09-24T19:17:52.331Z,11.00
2017-09-24T19:20:21.645Z,11.00
2017-09-24T19:22:51.966Z,10.90
2017-09-24T19:25:19.642Z,10.90
2017-09-24T19:27:47.176Z,10.90
2017-09-24T19:30:15.203Z,11.00
2017-09-24T19:32:42.939Z,10.90
2017-09-24T19:35:10.489Z,10.80
2017-09-24T19:37:38.504Z,10.70
2017-09-24T19:40:06.048Z,10.70
2017-09-24T19:42:33.586Z,10.70
2017-09-24T19:45:01.154Z,10.60
2017-09-24T19:47:28.728Z,10.50
2017-09-24T19:49:56.260Z,10.50
2017-09-24T19:52:24.490Z,10.40
2017-09-24T19:54:52.285Z,10.40
2017-09-24T19:57:19.816Z,10.30
2017-09-24T19:59:49.071Z,10.30
2017-09-24T20:02:16.610Z,10.30
2017-09-24T20:04:44.169Z,10.20
2017-09-24T20:07:11.728Z,10.20
2017-09-24T20:09:39.262Z,10.20
2017-09-24T20:12:06.775Z,10.10
2017-09-24T20:14:34.336Z,10.10
2017-09-24T20:17:03.532Z,10.00
2017-09-24T20:19:31.063Z,10.00
2017-09-24T20:21:58.932Z,10.00
2017-09-24T20:24:27.357Z,10.00
2017-09-24T20:26:54.884Z,10.00
2017-09-24T20:29:22.397Z,9.90
2017-09-24T20:31:49.932Z,9.90
2017-09-24T20:34:17.451Z,9.80
2017-09-24T20:36:45.614Z,9.80
2017-09-24T20:39:17.588Z,9.80
2017-09-24T20:41:45.099Z,9.70
2017-09-24T20:44:13.524Z,9.70
2017-09-24T20:46:41.140Z,9.70
2017-09-24T20:49:08.663Z,9.60
2017-09-24T20:51:36.259Z,9.60
2017-09-24T20:54:03.795Z,9.60
2017-09-24T20:56:34.684Z,9.60
2017-09-24T20:59:02.199Z,9.50
2017-09-24T21:01:30.771Z,9.50
2017-09-24T21:03:58.323Z,9.40
2017-09-24T21:06:26.299Z,9.40
2017-09-24T21:08:54.112Z,9.30
2017-09-24T21:11:22.135Z,9.30
2017-09-24T21:13:49.910Z,9.30
2017-09-24T21:16:17.451Z,9.20
2017-09-24T21:18:44.955Z,9.20
2017-09-24T21:21:13.258Z,9.20
2017-09-24T21:23:40.960Z,9.20
2017-09-24T21:26:09.654Z,9.20
2017-09-24T21:28:37.200Z,9.10
2017-09-24T21:31:04.720Z,9.10
2017-09-24T21:33:32.686Z,9.10
2017-09-24T21:36:00.779Z,9.10
2017-09-24T21:38:28.352Z,9.00
2017-09-24T21:40:55.974Z,9.00
2017-09-24T21:43:23.507Z,9.00
2017-09-24T21:45:52.735Z,9.00
2017-09-24T21:48:20.282Z,9.00
2017-09-24T21:50:47.808Z,9.00
2017-09-24T21:53:16.143Z,9.10
2017-09-24T21:55:43.640Z,9.10
2017-09-24T21:58:12.076Z,9.20
2017-09-24T22:00:39.628Z,9.20
2017-09-24T22:03:07.167Z,9.10
2017-09-24T22:05:34.865Z,9.00
2017-09-24T22:08:02.371Z,9.00
2017-09-24T22:10:36.216Z,9.00
2017-09-24T22:13:03.975Z,9.00
2017-09-24T22:15:31.947Z,8.90
2017-09-24T22:17:59.919Z,8.80
2017-09-24T22:20:27.447Z,8.80
2017-09-24T22:22:54.963Z,8.80
2017-09-24T22:25:22.507Z,8.80
2017-09-24T22:27:53.647Z,8.80
2017-09-24T22:30:22.029Z,8.70
2017-09-24T22:32:49.547Z,8.70
2017-09-24T22:35:17.850Z,8.70
2017-09-24T22:37:46.876Z,8.60
2017-09-24T22:40:14.470Z,8.60
2017-09-24T22:42:41.996Z,8.50
2017-09-24T22:45:11.949Z,8.50
2017-09-24T22:47:39.478Z,8.40
2017-09-24T22:50:07.451Z,8.40
2017-09-24T22:52:36.188Z,8.30
2017-09-24T22:55:03.724Z,8.30
2017-09-24T22:57:31.996Z,8.20
2017-09-24T22:59:59.845Z,8.20
2017-09-24T23:02:27.557Z,8.20
2017-09-24T23:04:55.655Z,8.20
2017-09-24T23:07:23.216Z,8.30
2017-09-24T23:09:51.260Z,8.20
2017-09-24T23:12:19.247Z,8.20
2017-09-24T23:14:47.279Z,8.20
2017-09-24T23:17:14.791Z,8.20
2017-09-24T23:19:42.288Z,8.20
2017-09-24T23:22:10.603Z,8.20
2017-09-24T23:24:38.278Z,8.10
2017-09-24T23:27:05.790Z,8.10
2017-09-24T23:29:33.579Z,8.00
2017-09-24T23:32:01.284Z,8.00
2017-09-24T23:34:29.586Z,8.00
2017-09-24T23:36:57.080Z,7.90
2017-09-24T23:39:24.632Z,8.00
2017-09-24T23:41:52.677Z,8.00
2017-09-24T23:44:22.599Z,7.90
2017-09-24T23:46:50.111Z,7.90
2017-09-24T23:49:17.655Z,7.90
2017-09-24T23:51:45.211Z,7.90
2017-09-24T23:54:12.770Z,7.90
2017-09-24T23:56:41.050Z,7.90
2017-09-24T23:59:13.204Z,7.90
